岡山グライダークラブ活動状況掲示板あなたは無料カウンター人目の訪問者です

岡山グライダークラブ
岡山市浦安南町639-1 岡南飛行場
 使用機:シャイベ式 SF25C型 ファルケ   JA2330
      ヴァレンティン式17E型 タイフーン  JA2342
 練習日:毎日曜日  クラブルーム:電話 086-265-1810
この掲示板は岡山グライダークラブの活動状況をお知らせする掲示板です。
!!!この掲示板は投稿規制をしています。!!!
クラブ関連各種情報は 岡山グライダークラブクラブルーム      を       .
  ブリーフイング情報は  岡山グライダークラブブリーフィングルーム  をご覧下さい。 .
※写真はクリックすると拡大して見ることが出来ます。
岡南飛行場へのアクセス等は 岡南飛行場管理事務所 をご覧ください。
クラブの ホームページ ができました。

 
10月07日
by OGC at 2018/10/7(日) 19:41:02 No.20181007192208  削除コメント
1024 x 768 x 79,183バイト
No.1

10月07日
本日の参加者
  会員       8名
  その他      0名


@本日の様子




METAR
RJBK 070300Z 17003KT 080V210 25KM FEW025CU SCT035 BKN060SC 26/18 Q1013 A2993
RKOB 070200Z VRB01KT 9999 FEW020 SCT040 BKN070 24/18 Q1014
RJOT 070200Z 27005KT 220V340 9999 FEW010 SCT025 BKN060 24/20 Q1015
RJOA 070200Z 02003KT 300V110 9999 FEW015 SCT030 BKN060 22/17 Q1016
TAF
RJOB 062313Z 0700/0806 03004KT 9999 FEW020 BKN040
RJOT 062309Z 0700/0806 01005KT 9999 FEW015 BKN050
          BECMG 0718/0721 33004KT
RJOA 062306Z 0700/0806 32005KT 9999 FEW025 BKN045


本日は、前線の影響で朝方、雨模様でしたが、前線も過ぎ去り風も穏やかな練習日和になりました。
タイフーンは先週同様、耐空検査のため整備、ファルケは耐空検査整備が終わり、社内検査フライト、耐空検査を行い無事合格しました。来週からファルケは通常訓練になります。
また、当クラブから航空大学校に行っていた会員が就職の内定報告に来所してくれました。来年にはラインのコーパイとして乗務しているんでしょうね。


解散    18:00

1番機  14:50離陸 撤収機  17:05着陸 

SF25C JA2330 ファルケ     02Flt.1h05min  
17E   JA2342 タイフーン    00Flt.0h00min  
合計                    02Flt.1h05min

    << 戻る || ホームページ || 最新の掲示板へ